»·PEaware :: N2124B KMYF-KCMA

N2124B :: KMYF-KCMA

FLIGHT INFORMATION

Flight Status: Arrived
Operator: Privately registered:
United States
More flights under this callsign
Pilot: John N. (18861)
Aircraft: Unknown
(PIPA)
More flights by this aircraft type
Origin: KMYF Montgomery
United States
Destination: KCMA Camarillo
United States
More flights between these airports :: More routes between these airports
Route: OCN V23 SLI SLI272 SMO125 SMO VNY
File this flight plan on PilotEdge
Remarks:
Altitude:
(Current/Filed)
6,000ft
Speed:
(Current/Filed)
0kts
Departed: 23-Dec-21 03:35 PM
Arrived: 23-Dec-21 04:30 PM
Distance/Time
Traveled:
129nm/0:55
Distance/Time
To Go:
Arrived

Flight Plot

Page will automatically refresh every two minutes.

Flight plan parsing failed; only flown route is shown


Map Options




Map Legend


Flown Route
Filed Route
Departure Airport
Arrival Airport
Navaid (VOR, NDB)
Fix

Horizontal Profiles

Position Reports

Time Latitude Longitude Heading Altitude Ground
Speed
23-Dec-21 15:21 32.813652 -117.140063 26 426ft 0kts
23-Dec-21 15:22 32.813652 -117.140063 26 426ft 0kts
23-Dec-21 15:23 32.813652 -117.140063 26 426ft 0kts
23-Dec-21 15:24 32.813652 -117.140063 26 426ft 0kts
23-Dec-21 15:25 32.813652 -117.140063 26 426ft 0kts
23-Dec-21 15:26 32.813652 -117.140063 26 426ft 0kts
23-Dec-21 15:27 32.813652 -117.140063 26 426ft 0kts
23-Dec-21 15:28 32.813655 -117.140061 26 426ft 0kts
23-Dec-21 15:29 32.813736 -117.139966 69 426ft 0kts
23-Dec-21 15:30 32.812817 -117.136850 117 426ft 15kts
23-Dec-21 15:31 32.811344 -117.133416 118 426ft 11kts
23-Dec-21 15:32 32.812020 -117.131152 8 426ft 0kts
23-Dec-21 15:33 32.812989 -117.131456 303 426ft 9kts
23-Dec-21 15:34 32.821881 -117.155276 278 1130ft 107kts
23-Dec-21 15:35 32.829292 -117.193056 293 1940ft 163kts
23-Dec-21 15:36 32.837572 -117.212466 293 2011ft 181kts
23-Dec-21 15:37 32.859785 -117.264638 293 2345ft 193kts
23-Dec-21 15:38 32.883592 -117.318744 293 3357ft 167kts
23-Dec-21 15:39 32.903659 -117.357881 293 5074ft 131kts
23-Dec-21 15:40 32.924024 -117.395378 293 6004ft 147kts
23-Dec-21 15:41 32.946298 -117.438342 293 6014ft 168kts
23-Dec-21 15:42 32.974059 -117.474325 325 6017ft 184kts
23-Dec-21 15:43 33.014036 -117.504359 338 6011ft 190kts
23-Dec-21 15:44 33.060776 -117.523711 340 6019ft 192kts
23-Dec-21 15:45 33.110638 -117.545334 340 6016ft 194kts
23-Dec-21 15:46 33.159501 -117.567333 340 6036ft 187kts
23-Dec-21 15:47 33.205396 -117.585766 340 6016ft 164kts
23-Dec-21 15:48 33.247953 -117.602125 340 6017ft 156kts
23-Dec-21 15:49 33.285422 -117.618455 336 6017ft 154kts
23-Dec-21 15:50 33.322279 -117.634764 338 6016ft 150kts
23-Dec-21 15:51 33.357756 -117.649535 339 6016ft 146kts
23-Dec-21 15:52 33.394577 -117.664361 339 6017ft 145kts
23-Dec-21 15:53 33.435828 -117.680657 342 6017ft 166kts
23-Dec-21 15:54 33.478992 -117.697473 337 6013ft 177kts
23-Dec-21 15:55 33.508292 -117.729662 310 6012ft 177kts
23-Dec-21 15:56 33.535767 -117.762270 309 6011ft 178kts
23-Dec-21 15:57 33.575200 -117.793513 331 6010ft 182kts
23-Dec-21 15:58 33.615912 -117.815199 331 6046ft 180kts
23-Dec-21 15:59 33.657949 -117.837587 331 6046ft 181kts
23-Dec-21 16:00 33.698278 -117.859188 331 6046ft 182kts
23-Dec-21 16:01 33.740898 -117.890660 295 6049ft 173kts
23-Dec-21 16:02 33.762435 -117.932406 295 6046ft 175kts
23-Dec-21 16:03 33.780749 -117.969490 293 6047ft 177kts
23-Dec-21 16:04 33.789088 -118.002938 286 6046ft 166kts
23-Dec-21 16:05 33.795467 -118.033551 288 6044ft 156kts
23-Dec-21 16:06 33.802305 -118.062582 288 6045ft 150kts
23-Dec-21 16:07 33.813586 -118.104154 289 6030ft 155kts
23-Dec-21 16:08 33.822612 -118.147900 289 6021ft 151kts
23-Dec-21 16:09 33.830958 -118.188489 289 6016ft 149kts
23-Dec-21 16:10 33.838976 -118.227660 289 6010ft 148kts
23-Dec-21 16:11 33.846834 -118.266338 289 6006ft 148kts
23-Dec-21 16:12 33.866487 -118.310712 318 5994ft 150kts
23-Dec-21 16:13 33.904164 -118.349263 317 6012ft 183kts
23-Dec-21 16:14 33.951080 -118.396868 317 6009ft 195kts
23-Dec-21 16:15 34.003289 -118.449636 317 6005ft 197kts
23-Dec-21 16:16 34.045163 -118.499558 311 6004ft 197kts
23-Dec-21 16:17 34.080104 -118.542973 311 6004ft 197kts
23-Dec-21 16:18 34.111398 -118.581782 311 5994ft 198kts
23-Dec-21 16:19 34.139530 -118.616630 310 5958ft 179kts
23-Dec-21 16:20 34.161711 -118.644247 311 5474ft 175kts
23-Dec-21 16:21 34.198199 -118.689695 312 4703ft 163kts
23-Dec-21 16:22 34.221098 -118.745928 259 4063ft 119kts
23-Dec-21 16:23 34.219234 -118.787770 258 4089ft 112kts
23-Dec-21 16:24 34.213525 -118.828934 242 3742ft 142kts
23-Dec-21 16:25 34.200245 -118.890099 258 3017ft 147kts
23-Dec-21 16:26 34.212654 -118.943246 287 2160ft 125kts
23-Dec-21 16:27 34.213395 -119.007444 272 1034ft 150kts
23-Dec-21 16:28 34.213969 -119.056524 270 799ft 99kts
23-Dec-21 16:29 34.213684 -119.092838 272 72ft 27kts
23-Dec-21 16:30 34.212701 -119.095716 212 68ft 1kts
23-Dec-21 16:31 34.211516 -119.095272 138 67ft 15kts

Navigation Log

Ident Type
Flight plan parsing failed, navigation log unavailable